createdAt,value
2022-12-10T00:00:10.399Z,4.59
2022-12-10T00:04:19.343Z,4.61
2022-12-10T00:08:22.598Z,4.60
2022-12-10T00:12:26.336Z,4.59
2022-12-10T00:16:34.934Z,4.62
2022-12-10T00:20:41.136Z,4.62
2022-12-10T00:24:44.147Z,4.63
2022-12-10T00:28:49.144Z,4.64
2022-12-10T00:32:55.123Z,4.64
2022-12-10T00:37:00.218Z,4.65
2022-12-10T00:41:04.922Z,4.66
2022-12-10T00:45:08.927Z,4.65
2022-12-10T00:49:13.152Z,4.63
2022-12-10T00:53:18.028Z,4.63
2022-12-10T00:57:21.533Z,4.60
2022-12-10T01:01:29.922Z,4.59
2022-12-10T01:05:33.106Z,4.58
2022-12-10T01:09:38.602Z,4.56
2022-12-10T01:13:42.908Z,4.54
2022-12-10T01:17:46.518Z,4.56
2022-12-10T01:21:53.475Z,4.54
2022-12-10T01:26:01.696Z,4.56
2022-12-10T01:30:07.023Z,4.56
2022-12-10T01:34:14.413Z,4.56
2022-12-10T01:38:17.866Z,4.56
2022-12-10T01:42:22.931Z,4.58
2022-12-10T01:46:28.079Z,4.59
2022-12-10T01:50:31.890Z,4.60
2022-12-10T01:54:38.165Z,4.59
2022-12-10T01:58:42.841Z,4.59
2022-12-10T02:02:52.222Z,4.59
2022-12-10T02:07:00.932Z,4.61
2022-12-10T02:11:17.929Z,4.61
2022-12-10T02:15:27.975Z,4.63
2022-12-10T02:19:49.687Z,4.65
2022-12-10T02:24:00.493Z,4.63
2022-12-10T02:28:13.513Z,4.62
2022-12-10T02:32:22.346Z,4.64
2022-12-10T02:36:30.086Z,4.63
2022-12-10T02:40:37.383Z,4.65
2022-12-10T02:44:44.545Z,4.63
2022-12-10T02:48:51.990Z,4.63
2022-12-10T02:52:55.068Z,4.62
2022-12-10T02:57:03.348Z,4.64
2022-12-10T03:01:15.094Z,4.65
2022-12-10T03:05:25.594Z,4.65
2022-12-10T03:09:39.930Z,4.66
2022-12-10T03:13:49.991Z,4.66
2022-12-10T03:17:54.441Z,4.68
2022-12-10T03:22:01.191Z,4.69
2022-12-10T03:26:06.739Z,4.70
2022-12-10T03:30:11.826Z,4.70
2022-12-10T03:34:16.584Z,4.70
2022-12-10T03:38:22.060Z,4.70
2022-12-10T03:42:25.694Z,4.68
2022-12-10T03:46:36.818Z,4.71
2022-12-10T03:50:40.376Z,4.71
2022-12-10T03:54:44.963Z,4.65
2022-12-10T03:58:48.720Z,4.70
2022-12-10T04:02:52.326Z,4.68
2022-12-10T04:06:56.001Z,4.67
2022-12-10T04:11:06.785Z,4.66
2022-12-10T04:15:29.275Z,4.60
2022-12-10T04:19:32.825Z,4.59
2022-12-10T04:23:54.066Z,4.57
2022-12-10T04:27:59.707Z,4.53
2022-12-10T04:32:03.071Z,4.50
2022-12-10T04:36:07.152Z,4.49
2022-12-10T04:40:12.004Z,4.47
2022-12-10T04:44:17.775Z,4.46
2022-12-10T04:48:21.457Z,4.45
2022-12-10T04:52:24.508Z,4.45
2022-12-10T04:56:28.449Z,4.44
2022-12-10T05:00:33.633Z,4.45
2022-12-10T05:04:37.379Z,4.46
2022-12-10T05:08:42.445Z,4.43
2022-12-10T05:12:45.472Z,4.45
2022-12-10T05:16:52.702Z,4.47
2022-12-10T05:20:56.275Z,4.47
2022-12-10T05:24:59.897Z,4.45
2022-12-10T05:29:03.060Z,4.42
2022-12-10T05:33:07.474Z,4.43
2022-12-10T05:37:11.324Z,4.42
2022-12-10T05:41:17.207Z,4.45
2022-12-10T05:45:20.718Z,4.48
2022-12-10T05:49:25.813Z,4.52
2022-12-10T05:53:29.476Z,4.55
2022-12-10T05:57:33.050Z,4.59
2022-12-10T06:01:37.623Z,4.62
2022-12-10T06:05:43.230Z,4.64
2022-12-10T06:09:46.866Z,4.65
2022-12-10T06:13:55.830Z,4.65
2022-12-10T06:18:00.113Z,4.68
2022-12-10T06:22:06.471Z,4.71
2022-12-10T06:26:11.929Z,4.72
2022-12-10T06:30:15.799Z,4.76
2022-12-10T06:34:19.409Z,4.78
2022-12-10T06:38:24.099Z,4.80
2022-12-10T06:42:27.744Z,4.81
2022-12-10T06:46:31.257Z,4.83
2022-12-10T06:50:34.863Z,4.85
2022-12-10T06:54:39.312Z,4.86
2022-12-10T06:58:43.634Z,4.84
2022-12-10T07:02:47.195Z,4.84
2022-12-10T07:06:50.742Z,4.82
2022-12-10T07:10:56.309Z,4.85
2022-12-10T07:14:59.771Z,4.85
2022-12-10T07:19:03.939Z,4.85
2022-12-10T07:23:07.473Z,4.88
2022-12-10T07:27:14.404Z,4.90
2022-12-10T07:31:17.586Z,4.88
2022-12-10T07:35:21.318Z,4.90
2022-12-10T07:39:24.752Z,4.93
2022-12-10T07:43:29.655Z,4.96
2022-12-10T07:47:32.922Z,4.96
2022-12-10T07:51:36.306Z,4.97
2022-12-10T07:55:39.783Z,4.99
2022-12-10T07:59:44.304Z,5.05
2022-12-10T08:03:51.540Z,5.10
2022-12-10T08:08:01.117Z,5.19
2022-12-10T08:12:06.769Z,5.32
2022-12-10T08:16:14.905Z,5.40
2022-12-10T08:20:18.138Z,5.46
2022-12-10T08:24:21.355Z,5.51
2022-12-10T08:28:24.942Z,5.55
2022-12-10T08:32:41.468Z,5.59
2022-12-10T08:36:46.410Z,5.63
2022-12-10T08:40:50.080Z,5.61
2022-12-10T08:44:56.518Z,5.59
2022-12-10T08:49:01.814Z,5.58
2022-12-10T08:53:05.969Z,5.57
2022-12-10T08:57:09.760Z,5.57
2022-12-10T09:01:16.043Z,5.60
2022-12-10T09:05:20.811Z,5.65
2022-12-10T09:09:24.003Z,5.71
2022-12-10T09:13:27.830Z,5.80
2022-12-10T09:17:31.311Z,5.87
2022-12-10T09:21:36.375Z,5.98
2022-12-10T09:25:39.398Z,6.09
2022-12-10T09:29:42.973Z,6.19
2022-12-10T09:33:46.840Z,6.30
2022-12-10T09:37:51.633Z,6.42
2022-12-10T09:42:10.958Z,6.52
2022-12-10T09:46:24.799Z,6.60
2022-12-10T09:50:35.057Z,6.62
2022-12-10T10:05:30.445Z,6.75
2022-12-10T10:09:38.597Z,6.79
2022-12-10T10:13:45.164Z,6.88
2022-12-10T10:17:51.183Z,6.94
2022-12-10T10:21:56.441Z,6.99
2022-12-10T10:26:00.056Z,7.02
2022-12-10T10:30:06.160Z,7.06
2022-12-10T10:34:18.066Z,7.11
2022-12-10T10:38:25.629Z,7.15
2022-12-10T10:42:38.610Z,7.22
2022-12-10T10:46:43.545Z,7.25
2022-12-10T10:50:49.587Z,7.30
2022-12-10T10:54:54.584Z,7.34
2022-12-10T10:59:00.473Z,7.39
2022-12-10T11:03:07.987Z,7.42
2022-12-10T11:07:23.245Z,7.47
2022-12-10T11:11:36.265Z,7.48
2022-12-10T11:15:41.748Z,7.43
2022-12-10T11:19:46.706Z,7.36
2022-12-10T11:23:54.160Z,7.31
2022-12-10T11:28:07.592Z,7.30
2022-12-10T11:32:23.803Z,7.26
2022-12-10T11:36:39.017Z,7.24
2022-12-10T11:40:49.513Z,7.20
2022-12-10T11:45:02.240Z,7.18
2022-12-10T11:49:17.572Z,7.16
2022-12-10T11:53:49.366Z,7.06
2022-12-10T11:58:06.376Z,6.97
2022-12-10T12:02:35.498Z,6.87
2022-12-10T12:06:55.821Z,6.77
2022-12-10T12:11:21.865Z,6.68
2022-12-10T12:15:34.497Z,6.63
2022-12-10T12:19:42.699Z,6.56
2022-12-10T12:23:56.626Z,6.54
2022-12-10T12:28:13.117Z,6.48
2022-12-10T12:32:22.239Z,6.49
2022-12-10T12:36:30.989Z,6.48
2022-12-10T12:40:42.499Z,6.45
2022-12-10T12:44:58.607Z,6.45
2022-12-10T12:49:13.262Z,6.47
2022-12-10T12:53:20.823Z,6.48
2022-12-10T12:57:32.875Z,6.48
2022-12-10T13:01:41.933Z,6.48
2022-12-10T13:05:45.740Z,6.46
2022-12-10T13:09:52.590Z,6.43
2022-12-10T13:14:21.540Z,6.41
2022-12-10T13:18:39.007Z,6.40
2022-12-10T13:22:57.790Z,6.41
2022-12-10T13:27:18.713Z,6.40
2022-12-10T13:31:35.345Z,6.37
2022-12-10T13:35:46.367Z,6.38
2022-12-10T13:39:56.111Z,6.36
2022-12-10T13:44:20.880Z,6.34
2022-12-10T13:48:36.099Z,6.31
2022-12-10T13:52:55.308Z,6.27
2022-12-10T13:57:06.884Z,6.22
2022-12-10T14:01:22.753Z,6.19
2022-12-10T14:05:41.440Z,6.17
2022-12-10T14:09:52.998Z,6.14
2022-12-10T14:14:00.980Z,6.10
2022-12-10T14:18:13.502Z,6.07
2022-12-10T14:22:21.887Z,6.07
2022-12-10T14:26:30.902Z,6.05
2022-12-10T14:30:34.706Z,6.02
2022-12-10T14:34:39.841Z,6.01
2022-12-10T14:38:43.504Z,6.00
2022-12-10T14:42:47.048Z,5.98
2022-12-10T14:46:52.378Z,5.95
2022-12-10T14:51:06.634Z,5.93
2022-12-10T14:55:16.434Z,5.90
2022-12-10T14:59:24.533Z,5.86
2022-12-10T15:03:32.028Z,5.80
2022-12-10T15:07:38.631Z,5.75
2022-12-10T15:11:42.706Z,5.70
2022-12-10T15:15:50.354Z,5.65
2022-12-10T15:19:54.134Z,5.61
2022-12-10T15:24:18.422Z,5.57
2022-12-10T15:28:28.020Z,5.51
2022-12-10T15:32:31.885Z,5.45
2022-12-10T15:36:42.142Z,5.42
2022-12-10T15:40:46.761Z,5.38
2022-12-10T15:44:50.875Z,5.32
2022-12-10T15:48:54.622Z,5.26
2022-12-10T15:52:59.936Z,5.18
2022-12-10T15:57:13.831Z,5.16
2022-12-10T16:01:18.727Z,5.11
2022-12-10T16:05:24.373Z,5.03
2022-12-10T16:09:27.846Z,5.03
2022-12-10T16:13:35.459Z,5.01
2022-12-10T16:17:39.064Z,4.95
2022-12-10T16:21:44.906Z,4.96
2022-12-10T16:25:51.556Z,4.94
2022-12-10T16:29:56.599Z,4.92
2022-12-10T16:34:01.747Z,4.90
2022-12-10T16:38:10.460Z,4.87
2022-12-10T16:42:29.582Z,4.86
2022-12-10T16:46:34.037Z,4.86
2022-12-10T16:50:38.135Z,4.82
2022-12-10T16:54:41.603Z,4.83
2022-12-10T16:58:45.686Z,4.82
2022-12-10T17:02:51.322Z,4.81
2022-12-10T17:06:54.562Z,4.79
2022-12-10T17:11:25.150Z,4.79
2022-12-10T17:15:28.736Z,4.75
2022-12-10T17:19:35.032Z,4.75
2022-12-10T17:23:38.192Z,4.72
2022-12-10T17:27:42.035Z,4.71
2022-12-10T17:31:46.108Z,4.69
2022-12-10T17:35:53.162Z,4.69
2022-12-10T17:39:56.387Z,4.67
2022-12-10T17:44:00.378Z,4.66
2022-12-10T17:48:03.888Z,4.65
2022-12-10T17:52:09.142Z,4.64
2022-12-10T17:56:17.476Z,4.63
2022-12-10T18:00:23.830Z,4.65
2022-12-10T18:04:27.049Z,4.66
2022-12-10T18:08:32.351Z,4.66
2022-12-10T18:12:37.344Z,4.65
2022-12-10T18:16:40.466Z,4.65
2022-12-10T18:20:46.762Z,4.66
2022-12-10T18:24:55.645Z,4.66
2022-12-10T18:29:01.310Z,4.63
2022-12-10T18:33:04.588Z,4.62
2022-12-10T18:37:09.267Z,4.62
2022-12-10T18:41:16.853Z,4.61
2022-12-10T18:45:20.681Z,4.61
2022-12-10T18:49:25.686Z,4.62
2022-12-10T18:53:30.095Z,4.61
2022-12-10T18:57:40.557Z,4.63
2022-12-10T19:01:47.735Z,4.63
2022-12-10T19:05:53.480Z,4.62
2022-12-10T19:09:57.242Z,4.61
2022-12-10T19:14:04.396Z,4.62
2022-12-10T19:18:11.150Z,4.61
2022-12-10T19:22:15.320Z,4.62
2022-12-10T19:26:27.899Z,4.63
2022-12-10T19:30:32.860Z,4.64
2022-12-10T19:34:37.417Z,4.63
2022-12-10T19:38:40.944Z,4.63
2022-12-10T19:42:46.427Z,4.64
2022-12-10T19:46:51.591Z,4.65
2022-12-10T19:50:55.671Z,4.64
2022-12-10T19:54:59.392Z,4.64
2022-12-10T19:59:14.111Z,4.66
2022-12-10T20:03:21.181Z,4.67
2022-12-10T20:07:27.256Z,4.67
2022-12-10T20:11:33.494Z,4.66
2022-12-10T20:15:39.134Z,4.66
2022-12-10T20:19:50.422Z,4.64
2022-12-10T20:23:59.637Z,4.66
2022-12-10T20:28:08.402Z,4.64
2022-12-10T20:32:12.526Z,4.65
2022-12-10T20:36:22.055Z,4.64
2022-12-10T20:40:32.433Z,4.64
2022-12-10T20:44:36.330Z,4.62
2022-12-10T20:48:40.608Z,4.63
2022-12-10T20:52:45.533Z,4.62
2022-12-10T20:56:48.715Z,4.63
2022-12-10T21:00:52.260Z,4.62
2022-12-10T21:04:56.919Z,4.62
2022-12-10T21:09:01.388Z,4.62
2022-12-10T21:13:06.322Z,4.60
2022-12-10T21:17:10.170Z,4.60
2022-12-10T21:21:17.856Z,4.57
2022-12-10T21:25:27.771Z,4.58
2022-12-10T21:29:33.511Z,4.58
2022-12-10T21:33:39.856Z,4.56
2022-12-10T21:37:43.667Z,4.57
2022-12-10T21:42:06.966Z,4.56
2022-12-10T21:46:11.439Z,4.61
2022-12-10T21:50:16.194Z,4.58
2022-12-10T21:54:19.697Z,4.57
2022-12-10T21:58:25.353Z,4.59
2022-12-10T22:02:29.916Z,4.56
2022-12-10T22:06:40.806Z,4.54
2022-12-10T22:10:49.889Z,4.58
2022-12-10T22:14:55.408Z,4.58
2022-12-10T22:18:58.653Z,4.59
2022-12-10T22:23:01.726Z,4.59
2022-12-10T22:27:05.406Z,4.60
2022-12-10T22:31:10.552Z,4.61
2022-12-10T22:35:15.071Z,4.58
2022-12-10T22:39:18.975Z,4.61
2022-12-10T22:43:51.441Z,4.61
2022-12-10T22:47:47.153Z,4.62
2022-12-10T22:51:50.220Z,4.61
2022-12-10T22:55:59.468Z,4.61
2022-12-10T23:00:02.788Z,4.60
2022-12-10T23:04:08.020Z,4.58
2022-12-10T23:08:11.798Z,4.57
2022-12-10T23:12:33.026Z,4.54
2022-12-10T23:16:36.179Z,4.53
2022-12-10T23:20:49.013Z,4.51
2022-12-10T23:24:53.883Z,4.50
2022-12-10T23:28:57.430Z,4.49
2022-12-10T23:33:03.748Z,4.49
2022-12-10T23:37:13.256Z,4.48
2022-12-10T23:41:17.285Z,4.47
2022-12-10T23:45:23.754Z,4.47
2022-12-10T23:49:27.407Z,4.45
2022-12-10T23:53:32.870Z,4.47
2022-12-10T23:57:37.148Z,4.46
